createdAt,value
2017-08-23T00:00:52.430Z,20.80
2017-08-23T00:03:19.937Z,20.80
2017-08-23T00:05:47.482Z,20.80
2017-08-23T00:08:15.040Z,20.80
2017-08-23T00:10:42.590Z,20.70
2017-08-23T00:13:10.097Z,20.70
2017-08-23T00:15:37.590Z,20.60
2017-08-23T00:18:05.132Z,20.60
2017-08-23T00:20:32.651Z,20.60
2017-08-23T00:23:00.213Z,20.60
2017-08-23T00:25:27.714Z,20.50
2017-08-23T00:27:55.251Z,20.50
2017-08-23T00:30:22.786Z,20.50
2017-08-23T00:32:50.289Z,20.50
2017-08-23T00:35:17.872Z,20.40
2017-08-23T00:37:45.389Z,20.40
2017-08-23T00:40:12.971Z,20.40
2017-08-23T00:42:40.496Z,20.40
2017-08-23T00:45:08.041Z,20.40
2017-08-23T00:47:35.595Z,20.40
2017-08-23T00:50:03.540Z,20.40
2017-08-23T00:52:31.082Z,20.40
2017-08-23T00:54:58.664Z,20.30
2017-08-23T00:57:26.197Z,20.30
2017-08-23T00:59:53.712Z,20.20
2017-08-23T01:02:21.505Z,20.20
2017-08-23T01:04:49.006Z,20.20
2017-08-23T01:07:16.526Z,20.20
2017-08-23T01:09:44.084Z,20.20
2017-08-23T01:12:11.650Z,20.10
2017-08-23T01:14:39.217Z,20.10
2017-08-23T01:17:06.725Z,20.00
2017-08-23T01:19:34.240Z,20.00
2017-08-23T01:22:01.806Z,20.00
2017-08-23T01:24:29.340Z,20.00
2017-08-23T01:26:56.842Z,19.90
2017-08-23T01:29:24.381Z,19.90
2017-08-23T01:31:51.882Z,19.90
2017-08-23T01:34:19.387Z,19.90
2017-08-23T01:36:46.943Z,19.90
2017-08-23T01:39:14.436Z,19.80
2017-08-23T01:41:42.001Z,19.90
2017-08-23T01:44:09.496Z,19.90
2017-08-23T01:46:37.004Z,19.80
2017-08-23T01:49:04.551Z,19.70
2017-08-23T01:51:32.074Z,19.70
2017-08-23T01:53:59.635Z,19.80
2017-08-23T01:56:27.136Z,19.60
2017-08-23T01:58:54.691Z,19.50
2017-08-23T02:01:22.227Z,19.50
2017-08-23T02:03:49.769Z,19.50
2017-08-23T02:06:17.366Z,19.50
2017-08-23T02:08:44.904Z,19.50
2017-08-23T02:11:12.438Z,19.50
2017-08-23T02:13:39.978Z,19.40
2017-08-23T02:16:07.952Z,19.40
2017-08-23T02:18:35.452Z,19.30
2017-08-23T02:21:02.960Z,19.30
2017-08-23T02:23:30.499Z,19.30
2017-08-23T02:25:58.006Z,19.20
2017-08-23T02:28:25.610Z,19.20
2017-08-23T02:30:53.103Z,19.20
2017-08-23T02:33:20.667Z,19.30
2017-08-23T02:35:48.184Z,19.20
2017-08-23T02:38:15.684Z,19.10
2017-08-23T02:40:43.238Z,19.00
2017-08-23T02:43:10.733Z,19.00
2017-08-23T02:45:38.289Z,19.10
2017-08-23T02:48:05.817Z,19.10
2017-08-23T02:50:33.322Z,19.10
2017-08-23T02:53:00.902Z,19.00
2017-08-23T02:55:28.449Z,18.90
2017-08-23T02:57:56.849Z,18.90
2017-08-23T03:00:24.376Z,18.90
2017-08-23T03:02:51.875Z,18.90
2017-08-23T03:05:19.417Z,18.90
2017-08-23T03:07:46.912Z,18.90
2017-08-23T03:10:14.482Z,18.90
2017-08-23T03:12:41.977Z,18.90
2017-08-23T03:15:09.492Z,18.90
2017-08-23T03:17:37.048Z,18.90
2017-08-23T03:20:04.996Z,18.90
2017-08-23T03:22:32.475Z,18.90
2017-08-23T03:25:00.036Z,18.90
2017-08-23T03:27:27.568Z,18.80
2017-08-23T03:29:55.130Z,18.80
2017-08-23T03:32:22.650Z,18.70
2017-08-23T03:34:50.175Z,18.70
2017-08-23T03:37:17.731Z,18.60
2017-08-23T03:39:45.291Z,18.50
2017-08-23T03:42:12.851Z,18.40
2017-08-23T03:44:40.396Z,18.40
2017-08-23T03:47:07.952Z,18.50
2017-08-23T03:49:35.454Z,18.50
2017-08-23T03:52:02.989Z,18.50
2017-08-23T03:54:30.481Z,18.50
2017-08-23T03:56:57.985Z,18.60
2017-08-23T03:59:25.506Z,18.50
2017-08-23T04:01:53.210Z,18.50
2017-08-23T04:04:20.771Z,18.40
2017-08-23T04:06:48.263Z,18.30
2017-08-23T04:09:15.768Z,18.30
2017-08-23T04:11:43.324Z,18.30
2017-08-23T04:14:10.832Z,18.30
2017-08-23T04:16:38.375Z,18.20
2017-08-23T04:19:05.883Z,18.20
2017-08-23T04:21:33.369Z,18.30
2017-08-23T04:24:00.928Z,18.30
2017-08-23T04:26:28.462Z,18.30
2017-08-23T04:28:55.956Z,18.30
2017-08-23T04:31:23.496Z,18.30
2017-08-23T04:33:50.998Z,18.30
2017-08-23T04:36:18.528Z,18.10
2017-08-23T04:38:46.032Z,18.10
2017-08-23T04:41:13.572Z,18.20
2017-08-23T04:43:41.169Z,18.30
2017-08-23T04:46:08.684Z,18.30
2017-08-23T04:48:36.821Z,18.30
2017-08-23T04:51:04.359Z,18.30
2017-08-23T04:53:31.920Z,18.40
2017-08-23T04:55:59.422Z,18.50
2017-08-23T04:58:26.989Z,18.50
2017-08-23T05:00:54.497Z,18.60
2017-08-23T05:03:22.043Z,18.60
2017-08-23T05:05:49.545Z,18.50
2017-08-23T05:08:17.103Z,18.50
2017-08-23T05:10:45.405Z,18.50
2017-08-23T05:13:12.913Z,18.50
2017-08-23T05:15:43.131Z,18.40
2017-08-23T05:18:10.647Z,18.40
2017-08-23T05:20:38.139Z,18.20
2017-08-23T05:23:05.706Z,18.10
2017-08-23T05:25:33.213Z,18.10
2017-08-23T05:28:00.791Z,18.20
2017-08-23T05:30:28.304Z,18.30
2017-08-23T05:32:55.830Z,18.30
2017-08-23T05:35:23.625Z,18.30
2017-08-23T05:37:51.165Z,18.30
2017-08-23T05:40:18.657Z,18.40
2017-08-23T05:42:46.188Z,18.40
2017-08-23T05:45:13.769Z,18.50
2017-08-23T05:47:41.284Z,18.60
2017-08-23T05:50:08.778Z,18.60
2017-08-23T05:52:36.359Z,18.60
2017-08-23T05:55:04.122Z,18.70
2017-08-23T05:57:31.680Z,18.70
2017-08-23T05:59:59.186Z,18.80
2017-08-23T06:02:26.823Z,18.70
2017-08-23T06:04:54.358Z,18.70
2017-08-23T06:07:21.859Z,18.70
2017-08-23T06:09:49.423Z,18.80
2017-08-23T06:12:16.981Z,18.80
2017-08-23T06:14:44.507Z,18.80
2017-08-23T06:17:12.107Z,18.80
2017-08-23T06:19:39.598Z,18.80
2017-08-23T06:22:07.073Z,18.80
2017-08-23T06:24:34.656Z,18.80
2017-08-23T06:27:02.205Z,18.70
2017-08-23T06:29:29.766Z,18.60
2017-08-23T06:31:57.286Z,18.70
2017-08-23T06:34:24.785Z,18.60
2017-08-23T06:36:52.344Z,18.70
2017-08-23T06:39:19.867Z,18.70
2017-08-23T06:41:47.436Z,18.80
2017-08-23T06:44:14.951Z,18.80
2017-08-23T06:46:42.481Z,18.90
2017-08-23T06:49:09.981Z,18.80
2017-08-23T06:51:37.931Z,18.90
2017-08-23T06:54:05.437Z,18.90
2017-08-23T06:56:32.952Z,19.00
2017-08-23T06:59:00.504Z,19.00
2017-08-23T07:01:28.018Z,19.00
2017-08-23T07:03:55.542Z,19.00
2017-08-23T07:06:23.115Z,18.90
2017-08-23T07:08:50.606Z,18.90
2017-08-23T07:11:18.186Z,18.90
2017-08-23T07:13:45.697Z,18.90
2017-08-23T07:16:13.248Z,18.80
2017-08-23T07:18:40.774Z,18.90
2017-08-23T07:21:08.273Z,18.90
2017-08-23T07:23:35.825Z,18.90
2017-08-23T07:26:03.350Z,18.90
2017-08-23T07:28:30.874Z,18.90
2017-08-23T07:30:59.231Z,18.90
2017-08-23T07:33:26.785Z,18.90
2017-08-23T07:35:54.380Z,19.00
2017-08-23T07:38:21.893Z,18.90
2017-08-23T07:40:49.526Z,18.90
2017-08-23T07:43:17.033Z,19.00
2017-08-23T07:45:44.572Z,19.20
2017-08-23T07:48:12.219Z,19.20
2017-08-23T07:50:39.735Z,19.20
2017-08-23T07:53:07.278Z,19.20
2017-08-23T07:55:34.786Z,19.20
2017-08-23T07:58:02.331Z,19.30
2017-08-23T08:00:29.971Z,19.30
2017-08-23T08:02:57.530Z,19.30
2017-08-23T08:05:25.061Z,19.40
2017-08-23T08:07:52.714Z,19.40
2017-08-23T08:10:20.277Z,19.20
2017-08-23T08:12:47.812Z,19.10
2017-08-23T08:15:15.393Z,19.10
2017-08-23T08:17:42.956Z,19.10
2017-08-23T08:20:10.462Z,19.00
2017-08-23T08:22:38.008Z,19.00
2017-08-23T08:25:06.131Z,19.00
2017-08-23T08:27:33.625Z,19.10
2017-08-23T08:30:01.160Z,19.20
2017-08-23T08:32:28.700Z,19.30
2017-08-23T08:34:56.858Z,19.30
2017-08-23T08:37:24.394Z,19.30
2017-08-23T08:39:51.890Z,19.30
2017-08-23T08:42:19.655Z,19.50
2017-08-23T08:44:47.260Z,19.50
2017-08-23T08:47:14.769Z,19.50
2017-08-23T08:49:42.315Z,19.50
2017-08-23T08:52:09.901Z,19.50
2017-08-23T08:54:37.467Z,19.50
2017-08-23T08:57:05.800Z,19.60
2017-08-23T08:59:33.348Z,19.80
2017-08-23T09:02:00.847Z,19.80
2017-08-23T09:04:28.384Z,19.80
2017-08-23T09:06:55.973Z,19.80
2017-08-23T09:09:23.470Z,19.80
2017-08-23T09:11:51.024Z,19.80
2017-08-23T09:14:18.516Z,19.70
2017-08-23T09:16:46.018Z,19.70
2017-08-23T09:19:13.573Z,19.80
2017-08-23T09:21:41.068Z,19.80
2017-08-23T09:24:08.860Z,19.80
2017-08-23T09:26:36.396Z,19.80
2017-08-23T09:29:03.976Z,20.00
2017-08-23T09:31:31.491Z,20.00
2017-08-23T09:33:58.987Z,20.00
2017-08-23T09:36:26.533Z,20.10
2017-08-23T09:38:54.030Z,20.20
2017-08-23T09:41:21.586Z,20.20
2017-08-23T09:43:49.108Z,20.20
2017-08-23T09:46:16.664Z,20.20
2017-08-23T09:48:44.168Z,20.20
2017-08-23T09:51:11.675Z,20.20
2017-08-23T09:53:39.225Z,20.20
2017-08-23T09:56:06.733Z,20.30
2017-08-23T09:58:34.274Z,20.30
2017-08-23T10:01:02.630Z,20.40
2017-08-23T10:03:30.173Z,20.30
2017-08-23T10:05:57.671Z,20.40
2017-08-23T10:08:25.241Z,20.50
2017-08-23T10:10:52.743Z,20.60
2017-08-23T10:13:20.286Z,20.60
2017-08-23T10:15:48.917Z,20.60
2017-08-23T10:18:16.512Z,20.70
2017-08-23T10:20:44.027Z,20.60
2017-08-23T10:23:11.585Z,20.60
2017-08-23T10:25:39.147Z,20.60
2017-08-23T10:28:06.694Z,20.80
2017-08-23T10:30:34.200Z,20.90
2017-08-23T10:33:01.738Z,21.10
2017-08-23T10:35:29.388Z,21.20
2017-08-23T10:37:56.919Z,21.20
2017-08-23T10:40:24.516Z,21.20
2017-08-23T10:42:52.097Z,21.20
2017-08-23T10:45:19.649Z,21.20
2017-08-23T10:47:47.208Z,21.40
2017-08-23T10:50:14.712Z,21.40
2017-08-23T10:52:42.260Z,21.40
2017-08-23T10:55:09.776Z,21.50
2017-08-23T10:57:37.336Z,21.70
2017-08-23T11:00:05.293Z,21.80
2017-08-23T11:02:32.842Z,21.90
2017-08-23T11:05:00.391Z,22.00
2017-08-23T11:07:28.388Z,22.10
2017-08-23T11:09:55.969Z,22.20
2017-08-23T11:12:23.505Z,22.20
2017-08-23T11:14:51.052Z,22.20
2017-08-23T11:17:18.546Z,22.30
2017-08-23T11:19:46.048Z,22.30
2017-08-23T11:22:28.564Z,22.20
2017-08-23T11:27:36.415Z,22.20
2017-08-23T11:30:04.257Z,22.20
2017-08-23T11:32:31.828Z,22.20
2017-08-23T11:34:59.349Z,22.20
2017-08-23T11:37:26.884Z,22.30
2017-08-23T11:39:54.471Z,22.30
2017-08-23T11:42:21.960Z,22.40
2017-08-23T11:44:49.471Z,22.40
2017-08-23T11:47:17.018Z,22.50
2017-08-23T11:49:45.266Z,22.60
2017-08-23T11:52:12.936Z,22.60
2017-08-23T11:54:40.419Z,22.80
2017-08-23T11:57:09.143Z,22.80
2017-08-23T11:59:36.626Z,22.80
2017-08-23T12:02:04.159Z,22.90
2017-08-23T12:04:31.711Z,23.00
2017-08-23T12:06:59.246Z,22.90
2017-08-23T12:09:26.801Z,23.00
2017-08-23T12:11:54.304Z,23.10
2017-08-23T12:14:21.831Z,23.20
2017-08-23T12:16:49.355Z,23.30
2017-08-23T12:19:16.847Z,23.40
2017-08-23T12:21:44.403Z,23.60
2017-08-23T12:24:11.939Z,23.50
2017-08-23T12:26:39.451Z,23.60
2017-08-23T12:29:07.022Z,23.70
2017-08-23T12:31:36.368Z,23.80
2017-08-23T12:34:03.893Z,23.90
2017-08-23T12:36:31.510Z,23.90
2017-08-23T12:38:59.033Z,24.00
2017-08-23T12:41:26.555Z,24.00
2017-08-23T12:43:54.099Z,24.10
2017-08-23T12:46:21.605Z,24.10
2017-08-23T12:48:49.181Z,24.20
2017-08-23T12:51:16.854Z,24.20
2017-08-23T12:53:44.798Z,24.30
2017-08-23T12:56:12.631Z,24.50
2017-08-23T12:58:40.179Z,24.60
2017-08-23T13:01:07.767Z,24.70
2017-08-23T13:03:37.045Z,24.50
2017-08-23T13:06:04.582Z,24.50
2017-08-23T13:08:34.752Z,24.50
2017-08-23T13:11:02.412Z,24.50
2017-08-23T13:13:29.966Z,24.50
2017-08-23T13:15:57.504Z,24.50
2017-08-23T13:18:25.096Z,24.60
2017-08-23T13:20:52.783Z,24.60
2017-08-23T13:23:20.373Z,24.70
2017-08-23T13:25:48.782Z,24.80
2017-08-23T13:28:16.731Z,25.00
2017-08-23T13:30:44.300Z,25.00
2017-08-23T13:33:11.871Z,25.20
2017-08-23T13:35:41.880Z,25.20
2017-08-23T13:38:09.535Z,25.20
2017-08-23T13:40:37.124Z,25.20
2017-08-23T13:43:04.698Z,25.30
2017-08-23T13:45:33.597Z,25.30
2017-08-23T13:48:05.769Z,25.40
2017-08-23T13:50:34.350Z,25.30
2017-08-23T13:53:02.094Z,25.40
2017-08-23T13:55:34.553Z,25.40
2017-08-23T13:58:05.459Z,25.40
2017-08-23T14:00:37.029Z,25.40
2017-08-23T14:03:05.837Z,25.50
2017-08-23T14:05:34.529Z,25.60
2017-08-23T14:08:04.689Z,25.80
2017-08-23T14:10:32.461Z,25.70
2017-08-23T14:13:00.144Z,25.70
2017-08-23T14:15:28.629Z,25.60
2017-08-23T14:17:56.877Z,25.50
2017-08-23T14:20:25.607Z,25.60
2017-08-23T14:22:53.160Z,25.70
2017-08-23T14:25:21.727Z,25.80
2017-08-23T14:27:49.256Z,25.90
2017-08-23T14:30:16.806Z,26.00
2017-08-23T14:32:44.477Z,25.90
2017-08-23T14:35:12.544Z,25.80
2017-08-23T14:37:42.662Z,25.80
2017-08-23T14:40:10.963Z,25.80
2017-08-23T14:42:39.639Z,25.80
2017-08-23T14:45:07.167Z,25.80
2017-08-23T14:47:34.801Z,25.70
2017-08-23T14:50:02.309Z,25.70
2017-08-23T14:52:30.054Z,25.50
2017-08-23T14:54:57.579Z,25.50
2017-08-23T14:57:25.109Z,25.40
2017-08-23T14:59:52.660Z,25.30
2017-08-23T15:02:20.158Z,25.20
2017-08-23T15:04:47.700Z,25.20
2017-08-23T15:07:15.227Z,25.00
2017-08-23T15:09:42.809Z,24.80
2017-08-23T15:12:10.339Z,24.90
2017-08-23T15:14:37.914Z,25.00
2017-08-23T15:17:05.568Z,25.00
2017-08-23T15:19:33.074Z,25.00
2017-08-23T15:22:00.710Z,25.10
2017-08-23T15:24:28.240Z,25.20
2017-08-23T15:26:55.793Z,25.20
2017-08-23T15:29:23.342Z,25.20
2017-08-23T15:31:50.858Z,25.30
2017-08-23T15:34:18.397Z,25.20
2017-08-23T15:36:46.114Z,25.30
2017-08-23T15:39:13.705Z,25.40
2017-08-23T15:41:41.283Z,25.40
2017-08-23T15:44:08.912Z,25.40
2017-08-23T15:46:36.431Z,25.60
2017-08-23T15:49:04.098Z,25.80
2017-08-23T15:51:31.716Z,25.80
2017-08-23T15:53:59.268Z,25.90
2017-08-23T15:56:26.819Z,26.00
2017-08-23T15:58:54.931Z,26.20
2017-08-23T16:01:22.454Z,26.40
2017-08-23T16:03:50.021Z,26.60
2017-08-23T16:06:18.350Z,26.80
2017-08-23T16:08:45.939Z,26.80
2017-08-23T16:11:13.515Z,27.10
2017-08-23T16:13:41.108Z,27.10
2017-08-23T16:16:08.648Z,27.30
2017-08-23T16:18:36.252Z,27.40
2017-08-23T16:21:03.811Z,27.50
2017-08-23T16:23:32.219Z,27.70
2017-08-23T16:25:59.767Z,27.80
2017-08-23T16:28:27.326Z,27.90
2017-08-23T16:30:54.840Z,28.00
2017-08-23T16:33:22.443Z,28.10
2017-08-23T16:35:50.089Z,28.20
2017-08-23T16:38:17.673Z,28.30
2017-08-23T16:40:45.210Z,28.30
2017-08-23T16:43:12.752Z,28.30
2017-08-23T16:45:40.309Z,28.30
2017-08-23T16:48:07.898Z,28.30
2017-08-23T16:50:35.468Z,28.30
2017-08-23T16:53:03.041Z,28.20
2017-08-23T16:55:30.606Z,28.00
2017-08-23T16:57:59.079Z,27.80
2017-08-23T17:00:27.255Z,27.60
2017-08-23T17:02:54.840Z,27.50
2017-08-23T17:05:22.371Z,27.40
2017-08-23T17:07:49.959Z,27.10
2017-08-23T17:10:17.584Z,26.90
2017-08-23T17:12:45.106Z,26.80
2017-08-23T17:15:12.612Z,26.60
2017-08-23T17:17:40.185Z,26.40
2017-08-23T17:20:07.716Z,26.30
2017-08-23T17:22:35.440Z,26.20
2017-08-23T17:25:03.492Z,26.00
2017-08-23T17:27:31.086Z,25.90
2017-08-23T17:29:58.625Z,25.80
2017-08-23T17:32:26.285Z,25.60
2017-08-23T17:34:53.868Z,25.50
2017-08-23T17:37:21.420Z,25.40
2017-08-23T17:39:49.009Z,25.30
2017-08-23T17:42:16.551Z,25.20
2017-08-23T17:44:44.136Z,25.10
2017-08-23T17:47:11.734Z,25.00
2017-08-23T17:49:40.458Z,25.00
2017-08-23T17:52:07.962Z,24.90
2017-08-23T17:54:35.609Z,24.80
2017-08-23T17:57:03.219Z,24.80
2017-08-23T17:59:30.786Z,24.60
2017-08-23T18:01:58.446Z,24.60
2017-08-23T18:04:26.069Z,24.50
2017-08-23T18:06:53.631Z,24.50
2017-08-23T18:09:21.210Z,24.40
2017-08-23T18:11:48.742Z,24.30
2017-08-23T18:14:16.879Z,24.30
2017-08-23T18:16:44.434Z,24.20
2017-08-23T18:19:12.822Z,24.20
2017-08-23T18:21:40.382Z,24.10
2017-08-23T18:24:07.925Z,24.10
2017-08-23T18:26:35.499Z,24.10
2017-08-23T18:29:03.118Z,24.00
2017-08-23T18:31:30.743Z,23.90
2017-08-23T18:33:58.327Z,23.90
2017-08-23T18:36:25.949Z,23.90
2017-08-23T18:38:54.447Z,23.80
2017-08-23T18:41:22.118Z,23.80
2017-08-23T18:43:50.352Z,23.70
2017-08-23T18:46:17.945Z,23.70
2017-08-23T18:48:45.549Z,23.70
2017-08-23T18:51:13.216Z,23.70
2017-08-23T18:53:40.769Z,23.60
2017-08-23T18:56:08.630Z,23.60
2017-08-23T18:58:36.197Z,23.50
2017-08-23T19:01:03.745Z,23.50
2017-08-23T19:03:31.294Z,23.40
2017-08-23T19:05:58.861Z,23.40
2017-08-23T19:08:26.404Z,23.40
2017-08-23T19:10:53.959Z,23.40
2017-08-23T19:13:21.515Z,23.40
2017-08-23T19:15:49.021Z,23.30
2017-08-23T19:18:16.657Z,23.30
2017-08-23T19:20:44.276Z,23.30
2017-08-23T19:23:11.865Z,23.20
2017-08-23T19:25:39.845Z,23.20
2017-08-23T19:28:07.371Z,23.20
2017-08-23T19:30:34.970Z,23.20
2017-08-23T19:33:02.534Z,23.20
2017-08-23T19:35:30.170Z,23.10
2017-08-23T19:37:57.675Z,23.10
2017-08-23T19:40:25.300Z,23.10
2017-08-23T19:42:52.856Z,23.00
2017-08-23T19:45:20.409Z,23.00
2017-08-23T19:47:47.981Z,23.00
2017-08-23T19:50:15.711Z,22.90
2017-08-23T19:52:43.244Z,22.90
2017-08-23T19:55:11.130Z,22.80
2017-08-23T19:57:38.675Z,22.70
2017-08-23T20:00:06.498Z,22.70
2017-08-23T20:02:34.932Z,22.60
2017-08-23T20:05:03.729Z,22.60
2017-08-23T20:07:31.335Z,22.50
2017-08-23T20:09:58.864Z,22.50
2017-08-23T20:12:26.410Z,22.50
2017-08-23T20:14:53.940Z,22.40
2017-08-23T20:17:21.457Z,22.50
2017-08-23T20:19:49.085Z,22.50
2017-08-23T20:22:17.669Z,22.40
2017-08-23T20:24:45.229Z,22.40
2017-08-23T20:27:12.844Z,22.40
2017-08-23T20:29:40.412Z,22.40
2017-08-23T20:32:08.686Z,22.30
2017-08-23T20:34:36.267Z,22.30
2017-08-23T20:37:03.803Z,22.30
2017-08-23T20:39:31.359Z,22.30
2017-08-23T20:41:59.434Z,22.30
2017-08-23T20:44:27.003Z,22.30
2017-08-23T20:46:54.584Z,22.30
2017-08-23T20:49:22.127Z,22.20
2017-08-23T20:51:49.706Z,22.20
2017-08-23T20:54:17.230Z,22.20
2017-08-23T20:56:44.800Z,22.10
2017-08-23T20:59:12.542Z,22.10
2017-08-23T21:01:40.116Z,22.10
2017-08-23T21:04:07.667Z,22.10
2017-08-23T21:06:35.244Z,22.10
2017-08-23T21:09:02.860Z,22.10
2017-08-23T21:11:30.538Z,22.10
2017-08-23T21:14:00.311Z,22.00
2017-08-23T21:16:27.824Z,22.10
2017-08-23T21:18:55.446Z,22.00
2017-08-23T21:21:22.978Z,22.00
2017-08-23T21:23:50.520Z,22.00
2017-08-23T21:26:18.103Z,22.00
2017-08-23T21:28:45.661Z,22.00
2017-08-23T21:31:13.289Z,21.90
2017-08-23T21:33:40.824Z,21.90
2017-08-23T21:36:08.353Z,21.90
2017-08-23T21:38:35.956Z,21.80
2017-08-23T21:41:03.513Z,21.80
2017-08-23T21:43:31.135Z,21.80
2017-08-23T21:45:58.740Z,21.80
2017-08-23T21:48:26.292Z,21.70
2017-08-23T21:50:53.846Z,21.70
2017-08-23T21:53:21.367Z,21.60
2017-08-23T21:55:49.769Z,21.60
2017-08-23T21:58:17.726Z,21.60
2017-08-23T22:00:45.297Z,21.50
2017-08-23T22:03:12.802Z,21.50
2017-08-23T22:05:41.238Z,21.40
2017-08-23T22:08:08.849Z,21.40
2017-08-23T22:10:36.372Z,21.30
2017-08-23T22:13:03.975Z,21.30
2017-08-23T22:15:31.487Z,21.30
2017-08-23T22:17:59.003Z,21.30
2017-08-23T22:20:26.629Z,21.30
2017-08-23T22:22:54.289Z,21.30
2017-08-23T22:25:21.809Z,21.20
2017-08-23T22:27:49.322Z,21.30
2017-08-23T22:30:17.249Z,21.20
2017-08-23T22:32:44.765Z,21.20
2017-08-23T22:35:12.281Z,21.20
2017-08-23T22:37:39.832Z,21.20
2017-08-23T22:40:08.490Z,21.10
2017-08-23T22:42:36.011Z,21.10
2017-08-23T22:45:04.487Z,21.10
2017-08-23T22:47:32.910Z,21.10
2017-08-23T22:50:01.553Z,21.10
2017-08-23T22:52:29.137Z,21.00
2017-08-23T22:54:56.739Z,21.00
2017-08-23T22:57:25.220Z,21.00
2017-08-23T22:59:52.758Z,21.00
2017-08-23T23:02:21.196Z,20.90
2017-08-23T23:04:48.895Z,20.90
2017-08-23T23:07:16.477Z,20.90
2017-08-23T23:09:44.078Z,20.90
2017-08-23T23:12:11.615Z,20.80
2017-08-23T23:14:39.162Z,20.80
2017-08-23T23:17:06.695Z,20.80
2017-08-23T23:19:34.272Z,20.80
2017-08-23T23:22:02.668Z,20.70
2017-08-23T23:24:30.224Z,20.70
2017-08-23T23:26:58.435Z,20.70
2017-08-23T23:29:25.956Z,20.70
2017-08-23T23:31:53.510Z,20.70
2017-08-23T23:34:21.041Z,20.50
2017-08-23T23:36:48.646Z,20.40
2017-08-23T23:39:16.163Z,20.30
2017-08-23T23:41:43.660Z,20.20
2017-08-23T23:44:11.187Z,20.10
2017-08-23T23:46:38.692Z,19.90
2017-08-23T23:49:06.241Z,19.70
2017-08-23T23:51:33.795Z,19.70
2017-08-23T23:54:01.322Z,19.60
2017-08-23T23:56:28.849Z,19.60
2017-08-23T23:58:56.400Z,19.60
